createdAt,value
2022-12-29T00:00:27.897Z,988.3621826
2022-12-29T00:01:23.809Z,988.4534302
2022-12-29T00:02:23.338Z,988.4338989
2022-12-29T00:03:17.025Z,988.4039307
2022-12-29T00:04:15.293Z,988.3110962
2022-12-29T00:05:12.929Z,988.4025269
2022-12-29T00:06:12.198Z,988.2731323
2022-12-29T00:07:10.795Z,988.3096924
2022-12-29T00:08:08.642Z,988.3404541
2022-12-29T00:09:03.214Z,988.3059082
2022-12-29T00:10:04.180Z,988.2474976
2022-12-29T00:10:55.666Z,988.2440796
2022-12-29T00:11:58.429Z,988.2907715
2022-12-29T00:12:56.346Z,988.1978149
2022-12-29T00:13:55.198Z,988.1978149
2022-12-29T00:14:49.572Z,988.2689209
2022-12-29T00:16:02.045Z,988.2225952
2022-12-29T00:17:02.457Z,988.1976318
2022-12-29T00:17:55.386Z,988.0717163
2022-12-29T00:18:55.500Z,988.1507568
2022-12-29T00:19:50.743Z,988.2296753
2022-12-29T00:20:53.919Z,988.0878296
2022-12-29T00:21:49.648Z,988.0754395
2022-12-29T00:22:50.205Z,988.0374756
2022-12-29T00:23:42.429Z,988.0535889
2022-12-29T00:29:47.636Z,988.1087646
2022-12-29T00:30:43.395Z,988.0683594
2022-12-29T00:31:46.807Z,988.0237427
2022-12-29T00:33:12.296Z,988.1280518
2022-12-29T00:33:51.628Z,988.1143188
2022-12-29T00:34:54.026Z,988.0064697
2022-12-29T00:35:49.861Z,988.0279541
2022-12-29T00:36:51.038Z,988.1046143
2022-12-29T00:37:49.079Z,987.8673706
2022-12-29T00:38:46.111Z,987.9841309
2022-12-29T00:40:44.356Z,988.0142212
2022-12-29T00:41:54.193Z,987.9098511
2022-12-29T00:42:50.662Z,987.8945313
2022-12-29T00:43:52.391Z,987.8795166
2022-12-29T00:44:53.628Z,987.9240112
2022-12-29T00:45:56.897Z,987.8460083
2022-12-29T00:46:52.240Z,987.71875
2022-12-29T00:47:55.628Z,987.7920532
2022-12-29T00:48:52.499Z,987.7495117
2022-12-29T00:49:50.189Z,987.7619019
2022-12-29T00:50:44.634Z,987.6976318
2022-12-29T00:51:42.794Z,987.8637695
2022-12-29T00:52:39.922Z,987.8395386
2022-12-29T00:53:38.751Z,987.7181396
2022-12-29T00:54:45.443Z,987.7868652
2022-12-29T00:55:52.050Z,987.7940674
2022-12-29T01:09:47.853Z,987.6417236
2022-12-29T01:13:32.999Z,987.4874878
2022-12-29T01:17:25.873Z,987.602356
2022-12-29T01:18:28.245Z,987.59021
2022-12-29T01:19:22.631Z,987.5441895
2022-12-29T01:21:21.084Z,987.6046753
2022-12-29T01:22:20.478Z,987.6439209
2022-12-29T01:23:14.812Z,987.6303101
2022-12-29T01:24:13.942Z,987.5960693
2022-12-29T01:26:15.861Z,987.6235962
2022-12-29T01:27:11.085Z,987.6431274
2022-12-29T01:28:20.895Z,987.6303711
2022-12-29T01:28:26.090Z,987.6303711
2022-12-29T01:29:14.286Z,987.6658325
2022-12-29T01:31:09.277Z,987.6531372
2022-12-29T01:32:11.128Z,987.6334229
2022-12-29T01:33:05.446Z,987.7619019
2022-12-29T01:34:07.868Z,987.7848511
2022-12-29T01:36:02.451Z,987.6827393
2022-12-29T01:36:59.536Z,987.6629639
2022-12-29T01:38:02.778Z,987.6353149
2022-12-29T01:38:54.592Z,987.5526733
2022-12-29T01:40:47.272Z,987.5834351
2022-12-29T01:41:48.938Z,987.5147095
2022-12-29T01:42:43.335Z,987.4241333
2022-12-29T01:43:42.691Z,987.4665527
2022-12-29T01:44:37.208Z,987.4607544
2022-12-29T01:45:39.316Z,987.4813232
2022-12-29T01:46:33.754Z,987.4307251
2022-12-29T01:47:33.007Z,987.5179443
2022-12-29T01:48:28.430Z,987.5257568
2022-12-29T01:49:31.297Z,987.5441895
2022-12-29T01:50:35.265Z,987.5429688
2022-12-29T01:51:30.096Z,987.4112549
2022-12-29T01:52:34.814Z,987.4536743
2022-12-29T01:53:27.536Z,987.4615479
2022-12-29T01:54:28.987Z,987.4170532
2022-12-29T01:56:20.409Z,987.4594727
2022-12-29T01:57:17.853Z,987.4960938
2022-12-29T01:58:15.616Z,987.3964844
2022-12-29T01:59:10.045Z,987.3356323
2022-12-29T02:01:11.627Z,987.2692871
2022-12-29T02:02:02.394Z,987.3986206
2022-12-29T02:03:04.906Z,987.3688965
2022-12-29T02:04:50.549Z,987.3175049
2022-12-29T02:06:33.615Z,987.3509521
2022-12-29T02:07:36.386Z,987.3406372
2022-12-29T02:08:34.567Z,987.3529663
2022-12-29T02:09:34.823Z,987.300293
2022-12-29T02:11:39.047Z,987.3656006
2022-12-29T02:12:37.408Z,987.3071899
2022-12-29T02:13:40.593Z,987.3093262
2022-12-29T02:14:41.104Z,987.2384644
2022-12-29T02:15:45.484Z,987.2750854
2022-12-29T02:16:42.598Z,987.2771606
2022-12-29T02:17:44.403Z,987.3643799
2022-12-29T02:18:53.621Z,987.3746948
2022-12-29T02:20:48.786Z,987.329834
2022-12-29T02:21:53.148Z,987.3137207
2022-12-29T02:22:47.794Z,987.2956543
2022-12-29T02:23:49.096Z,987.4089355
2022-12-29T02:24:45.500Z,987.2854004
2022-12-29T02:25:47.937Z,987.2932739
2022-12-29T02:26:47.005Z,987.3013916
2022-12-29T02:27:48.244Z,987.282959
2022-12-29T02:28:46.755Z,987.2990723
2022-12-29T02:30:55.266Z,987.2406006
2022-12-29T02:31:58.774Z,987.2750854
2022-12-29T02:32:54.950Z,987.2487793
2022-12-29T02:33:56.184Z,987.2532959
2022-12-29T02:36:00.432Z,987.3117065
2022-12-29T02:37:02.858Z,987.282959
2022-12-29T02:37:58.877Z,987.2545166
2022-12-29T02:39:00.623Z,987.2442017
2022-12-29T02:40:00.217Z,987.1973267
2022-12-29T02:41:06.596Z,987.178894
2022-12-29T02:42:08.060Z,987.1973267
2022-12-29T02:43:15.326Z,987.1730957
2022-12-29T02:45:16.039Z,987.0587769
2022-12-29T02:45:58.202Z,986.9649048
2022-12-29T02:47:02.067Z,987.0842285
2022-12-29T02:48:05.887Z,987.0639038
2022-12-29T02:49:04.076Z,987.100647
2022-12-29T02:51:01.302Z,987.0932617
2022-12-29T02:52:03.217Z,987.1171875
2022-12-29T02:53:00.626Z,987.005127
2022-12-29T02:54:02.358Z,986.9689331
2022-12-29T02:55:00.422Z,986.9298706
2022-12-29T02:56:05.572Z,986.9092407
2022-12-29T02:57:01.866Z,986.9837646
2022-12-29T02:58:04.269Z,986.9334106
2022-12-29T02:59:02.320Z,986.9597778
2022-12-29T03:00:03.738Z,987.0088501
2022-12-29T03:01:00.139Z,986.9276733
2022-12-29T03:02:01.393Z,986.9882813
2022-12-29T03:02:57.597Z,986.9642944
2022-12-29T03:04:00.564Z,987.0960693
2022-12-29T03:04:56.944Z,987.0857544
2022-12-29T03:06:00.872Z,987.0409546
2022-12-29T03:07:00.983Z,987.1372681
2022-12-29T03:07:59.960Z,987.1030273
2022-12-29T03:09:01.346Z,987.0582275
2022-12-29T03:11:01.003Z,986.9367065
2022-12-29T03:12:01.385Z,986.9734497
2022-12-29T03:13:00.526Z,986.9310303
2022-12-29T03:14:01.563Z,986.9815674
2022-12-29T03:15:02.044Z,986.9837646
2022-12-29T03:16:05.316Z,986.875
2022-12-29T03:17:06.490Z,986.961853
2022-12-29T03:18:08.564Z,986.9676514
2022-12-29T03:19:11.419Z,986.9515381
2022-12-29T03:20:14.853Z,986.9597778
2022-12-29T03:21:18.275Z,986.8967896
2022-12-29T03:22:13.270Z,986.9515381
2022-12-29T03:23:13.824Z,986.8807983
2022-12-29T03:24:40.047Z,986.961853
2022-12-29T03:25:21.388Z,986.9528198
2022-12-29T03:26:21.583Z,986.9827881
2022-12-29T03:27:22.112Z,986.8485718
2022-12-29T03:28:17.776Z,986.8201294
2022-12-29T03:29:24.246Z,986.8382568
2022-12-29T03:31:20.705Z,986.8201294
2022-12-29T03:32:16.438Z,986.7489014
2022-12-29T03:33:21.279Z,986.7834473
2022-12-29T03:34:19.878Z,986.7468262
2022-12-29T03:36:17.349Z,986.7365723
2022-12-29T03:37:17.358Z,986.6550293
2022-12-29T03:38:18.699Z,986.6813965
2022-12-29T03:39:23.175Z,986.7661133
2022-12-29T03:41:20.881Z,986.6710815
2022-12-29T03:42:23.389Z,986.710144
2022-12-29T03:43:16.058Z,986.7237549
2022-12-29T03:44:27.616Z,986.6685791
2022-12-29T03:46:26.139Z,986.5393066
2022-12-29T03:47:21.845Z,986.631958
2022-12-29T03:48:19.113Z,986.5424805
2022-12-29T03:49:20.280Z,986.6056519
2022-12-29T03:51:16.367Z,986.7006836
2022-12-29T03:52:17.007Z,986.6665039
2022-12-29T03:53:17.459Z,986.6216431
2022-12-29T03:54:13.329Z,986.7192383
2022-12-29T03:55:16.796Z,986.6903687
2022-12-29T03:56:16.624Z,986.6401367
2022-12-29T03:57:20.980Z,986.6846924
2022-12-29T03:58:14.050Z,986.6640625
2022-12-29T03:59:14.108Z,986.6903687
2022-12-29T04:00:16.682Z,986.6903687
2022-12-29T04:01:17.055Z,986.6376343
2022-12-29T04:02:16.718Z,986.5059204
2022-12-29T04:03:17.569Z,986.5770874
2022-12-29T04:04:15.677Z,986.4692383
2022-12-29T04:07:01.856Z,986.4831543
2022-12-29T04:07:46.115Z,986.3845215
2022-12-29T04:08:46.355Z,986.4692993
2022-12-29T04:09:48.682Z,986.4451294
2022-12-29T04:10:47.756Z,986.4841919
2022-12-29T04:11:54.313Z,986.4304199
2022-12-29T04:12:51.767Z,986.3513184
2022-12-29T04:13:52.346Z,986.3534546
2022-12-29T04:15:52.111Z,986.3353271
2022-12-29T04:17:02.083Z,986.2904663
2022-12-29T04:18:11.380Z,986.3637695
2022-12-29T04:19:08.014Z,986.3110962
2022-12-29T04:20:00.803Z,986.2974854
2022-12-29T04:21:06.569Z,986.234436
2022-12-29T04:22:10.909Z,986.2000122
2022-12-29T04:23:07.287Z,986.086731
2022-12-29T04:24:08.100Z,986.1713867
2022-12-29T04:25:05.041Z,986.2217407
2022-12-29T04:26:08.546Z,986.2480469
2022-12-29T04:27:12.476Z,986.2217407
2022-12-29T04:28:07.045Z,986.2562256
2022-12-29T04:29:10.265Z,986.1379395
2022-12-29T04:31:10.810Z,986.1220093
2022-12-29T04:32:11.326Z,986.1771851
2022-12-29T04:33:07.665Z,986.2722778
2022-12-29T04:34:15.645Z,986.2640381
2022-12-29T04:36:13.531Z,986.2961426
2022-12-29T04:37:07.717Z,986.2779541
2022-12-29T04:38:12.817Z,986.3410034
2022-12-29T04:39:13.947Z,986.3570557
2022-12-29T04:41:16.276Z,986.4004517
2022-12-29T04:42:10.260Z,986.3214111
2022-12-29T04:43:18.247Z,986.3088989
2022-12-29T04:44:11.432Z,986.3270874
2022-12-29T04:45:56.818Z,986.2790527
2022-12-29T04:46:36.693Z,986.2249756
2022-12-29T04:47:36.182Z,986.1390381
2022-12-29T04:48:31.045Z,986.1629639
2022-12-29T04:49:35.063Z,986.149353
2022-12-29T04:51:34.817Z,986.1746826
2022-12-29T04:52:32.043Z,986.2056885
2022-12-29T04:53:34.533Z,986.3272095
2022-12-29T04:54:29.684Z,986.1504517
2022-12-29T04:55:30.189Z,986.1586914
2022-12-29T04:56:28.213Z,986.3464355
2022-12-29T04:57:29.843Z,986.1882935
2022-12-29T04:58:24.303Z,986.3283081
2022-12-29T04:59:26.269Z,986.1953125
2022-12-29T05:01:23.550Z,986.3706055
2022-12-29T05:02:31.152Z,986.3866577
2022-12-29T05:03:22.753Z,986.3684082
2022-12-29T05:04:23.169Z,986.2022095
2022-12-29T05:06:17.073Z,986.3075562
2022-12-29T05:07:12.611Z,986.3776855
2022-12-29T05:08:10.604Z,986.2698364
2022-12-29T05:09:10.135Z,986.3570557
2022-12-29T05:11:09.218Z,986.4336548
2022-12-29T05:12:05.417Z,986.3845215
2022-12-29T05:13:07.318Z,986.3236084
2022-12-29T05:13:59.848Z,986.4268799
2022-12-29T05:14:57.769Z,986.4084473
2022-12-29T05:16:01.256Z,986.4668579
2022-12-29T05:17:02.761Z,986.3717041
2022-12-29T05:17:57.692Z,986.4668579
2022-12-29T05:19:44.373Z,986.5584106
2022-12-29T05:20:24.034Z,986.5125122
2022-12-29T05:21:22.205Z,986.4679565
2022-12-29T05:22:27.761Z,986.5388794
2022-12-29T05:23:28.460Z,986.4885864
2022-12-29T05:24:26.548Z,986.5331421
2022-12-29T05:25:25.497Z,986.6696777
2022-12-29T05:26:20.770Z,986.6065674
2022-12-29T05:27:20.365Z,986.5905762
2022-12-29T05:28:18.651Z,986.5609131
2022-12-29T05:29:20.625Z,986.5791626
2022-12-29T05:30:16.111Z,986.6582031
2022-12-29T05:31:29.004Z,986.5791626
2022-12-29T05:32:23.848Z,986.6239624
2022-12-29T05:33:21.152Z,986.7775269
2022-12-29T05:34:23.460Z,986.7693481
2022-12-29T05:36:23.929Z,986.8085327
2022-12-29T05:37:18.107Z,986.7775269
2022-12-29T05:38:18.946Z,986.8726807
2022-12-29T05:39:13.801Z,986.7910767
2022-12-29T05:40:13.034Z,986.756897
2022-12-29T05:41:07.625Z,986.8623657
2022-12-29T05:42:15.134Z,986.8599243
2022-12-29T05:43:20.580Z,986.9104614
2022-12-29T05:44:17.160Z,986.9472046
2022-12-29T05:46:17.966Z,986.8417358
2022-12-29T05:47:10.075Z,986.918457
2022-12-29T05:48:15.527Z,986.7786865
2022-12-29T05:49:09.847Z,986.8759155
2022-12-29T05:51:14.903Z,986.8920288
2022-12-29T05:52:10.334Z,986.918457
2022-12-29T05:53:10.549Z,986.8737793
2022-12-29T05:54:05.103Z,986.8577881
2022-12-29T05:55:09.615Z,986.9137573
2022-12-29T05:56:04.833Z,986.8300171
2022-12-29T05:57:11.972Z,986.9676514
2022-12-29T05:58:06.537Z,987.0145874
2022-12-29T05:59:05.981Z,986.8909302
2022-12-29T06:01:01.043Z,986.9700928
2022-12-29T06:01:59.382Z,986.9012451
2022-12-29T06:03:01.114Z,986.8841553
2022-12-29T06:04:00.746Z,986.9001465
2022-12-29T06:05:55.489Z,986.9368896
2022-12-29T06:07:41.453Z,986.9115601
2022-12-29T06:08:24.856Z,986.961853
2022-12-29T06:09:24.027Z,987.036377
2022-12-29T06:10:29.932Z,986.9412231
2022-12-29T06:11:35.476Z,987.0010986
2022-12-29T06:12:35.812Z,987.0801392
2022-12-29T06:13:32.382Z,987.0926514
2022-12-29T06:14:34.149Z,987.0526733
2022-12-29T06:16:31.762Z,987.1706543
2022-12-29T06:17:28.015Z,987.1591187
2022-12-29T06:18:34.764Z,987.1558838
2022-12-29T06:19:30.253Z,987.1455688
2022-12-29T06:20:33.375Z,987.0825195
2022-12-29T06:21:33.618Z,987.1937256
2022-12-29T06:22:42.237Z,987.0722046
2022-12-29T06:23:44.566Z,987.0767822
2022-12-29T06:24:46.721Z,987.1316528
2022-12-29T06:26:48.938Z,987.1052856
2022-12-29T06:27:50.897Z,987.1419678
2022-12-29T06:28:53.364Z,987.157959
2022-12-29T06:30:58.436Z,987.1682739
2022-12-29T06:31:53.779Z,987.2050171
2022-12-29T06:32:58.228Z,987.2210083
2022-12-29T06:33:57.067Z,987.1765137
2022-12-29T06:35:00.192Z,987.2246704
2022-12-29T06:36:04.637Z,987.2268066
2022-12-29T06:37:01.035Z,987.147644
2022-12-29T06:38:07.883Z,987.2510376
2022-12-29T06:39:08.635Z,987.2577515
2022-12-29T06:41:07.424Z,987.3734131
2022-12-29T06:42:06.544Z,987.3677368
2022-12-29T06:43:12.625Z,987.4262695
2022-12-29T06:44:11.472Z,987.4022827
2022-12-29T06:45:56.658Z,987.4092407
2022-12-29T06:46:43.575Z,987.4343262
2022-12-29T06:47:40.529Z,987.4136963
2022-12-29T06:48:41.939Z,987.350647
2022-12-29T06:49:38.093Z,987.5925293
2022-12-29T06:51:35.419Z,987.647644
2022-12-29T06:52:35.277Z,987.6498413
2022-12-29T06:53:29.681Z,987.6098633
2022-12-29T06:54:35.736Z,987.6361694
2022-12-29T06:56:33.497Z,987.5592041
2022-12-29T06:57:31.622Z,987.5488892
2022-12-29T06:58:29.796Z,987.6119385
2022-12-29T06:59:32.190Z,987.5879517
2022-12-29T07:01:28.051Z,987.6486206
2022-12-29T07:02:25.084Z,987.5879517
2022-12-29T07:03:24.843Z,987.6670532
2022-12-29T07:04:20.908Z,987.569519
2022-12-29T07:05:19.219Z,987.4927979
2022-12-29T07:06:19.503Z,987.5353394
2022-12-29T07:07:14.396Z,987.5879517
2022-12-29T07:08:11.726Z,987.569519
2022-12-29T07:09:11.011Z,987.6040649
2022-12-29T07:11:16.116Z,987.6246948
2022-12-29T07:12:12.714Z,987.6992188
2022-12-29T07:13:11.885Z,987.7598267
2022-12-29T07:14:12.339Z,987.6176758
2022-12-29T07:16:14.753Z,987.7346191
2022-12-29T07:17:52.431Z,987.6693726
2022-12-29T07:18:58.818Z,987.559082
2022-12-29T07:20:55.561Z,987.612915
2022-12-29T07:21:58.544Z,987.5886841
2022-12-29T07:22:52.906Z,987.6428223
2022-12-29T07:23:58.708Z,987.559082
2022-12-29T07:25:52.774Z,987.8013306
2022-12-29T07:26:47.303Z,987.6040649
2022-12-29T07:27:51.089Z,987.71875
2022-12-29T07:29:18.827Z,987.7140503
2022-12-29T07:31:09.230Z,987.7460938
2022-12-29T07:32:09.814Z,987.6509399
2022-12-29T07:33:11.788Z,987.7531128
2022-12-29T07:34:12.933Z,987.6646729
2022-12-29T07:36:12.764Z,987.6774292
2022-12-29T07:37:10.903Z,987.7609863
2022-12-29T07:38:11.939Z,987.7976685
2022-12-29T07:39:11.387Z,987.7553101
2022-12-29T07:41:16.105Z,987.8410034
2022-12-29T07:42:10.415Z,987.8982544
2022-12-29T07:43:15.024Z,987.8397827
2022-12-29T07:44:07.604Z,987.9715576
2022-12-29T07:45:09.897Z,987.9154663
2022-12-29T07:46:06.077Z,988.0287476
2022-12-29T07:47:09.164Z,987.9806519
2022-12-29T07:48:07.340Z,987.9624023
2022-12-29T07:49:07.533Z,988.0699463
2022-12-29T07:51:13.734Z,988.1629639
2022-12-29T07:52:10.170Z,988.1651001
2022-12-29T07:53:13.786Z,988.0859985
2022-12-29T07:54:12.836Z,988.1045532
2022-12-29T07:56:10.953Z,988.2420044
2022-12-29T07:57:10.301Z,988.2201538
2022-12-29T07:58:10.576Z,988.4022827
2022-12-29T07:59:07.329Z,988.3049927
2022-12-29T08:01:07.245Z,988.310791
2022-12-29T08:02:10.300Z,988.3956299
2022-12-29T08:03:03.734Z,988.2820435
2022-12-29T08:04:09.145Z,988.4484253
2022-12-29T08:05:03.681Z,988.3933105
2022-12-29T08:06:03.908Z,988.3326416
2022-12-29T08:07:26.496Z,988.3269043
2022-12-29T08:08:10.197Z,988.2132568
2022-12-29T08:09:16.416Z,988.1193848
2022-12-29T08:09:22.018Z,988.1193848
2022-12-29T08:10:12.916Z,988.2387695
2022-12-29T08:11:11.721Z,988.3154907
2022-12-29T08:12:07.185Z,988.3075562
2022-12-29T08:13:09.881Z,988.28125
2022-12-29T08:14:05.445Z,988.2409668
2022-12-29T08:15:05.457Z,988.2409668
2022-12-29T08:16:02.115Z,988.4196167
2022-12-29T08:17:02.968Z,988.3566284
2022-12-29T08:18:04.943Z,988.274231
2022-12-29T08:19:06.613Z,988.3289795
2022-12-29T08:20:10.080Z,988.2684326
2022-12-29T08:21:05.629Z,988.3417358
2022-12-29T08:22:06.177Z,988.4285889
2022-12-29T08:23:02.447Z,988.3279419
2022-12-29T08:24:06.904Z,988.4389038
2022-12-29T08:25:02.278Z,988.4124756
2022-12-29T08:26:01.800Z,988.3071899
2022-12-29T08:26:57.227Z,988.3621826
2022-12-29T08:28:00.380Z,988.4676514
2022-12-29T08:28:52.886Z,988.4700928
2022-12-29T08:30:49.560Z,988.3704834
2022-12-29T08:31:50.895Z,988.4676514
2022-12-29T08:32:47.238Z,988.414978
2022-12-29T08:33:48.106Z,988.4734497
2022-12-29T08:34:50.612Z,988.4813843
2022-12-29T08:35:45.890Z,988.4916382
2022-12-29T08:36:45.351Z,988.3543701
2022-12-29T08:37:41.635Z,988.4230957
2022-12-29T08:38:44.441Z,988.5125122
2022-12-29T08:39:37.483Z,988.3851318
2022-12-29T08:40:39.348Z,988.475769
2022-12-29T08:41:40.452Z,988.4734497
2022-12-29T08:42:41.979Z,988.5524902
2022-12-29T08:43:36.815Z,988.4389038
2022-12-29T08:44:40.303Z,988.5443726
2022-12-29T08:46:36.758Z,988.5603638
2022-12-29T08:48:22.409Z,988.5090332
2022-12-29T08:49:09.591Z,988.5345459
2022-12-29T08:50:09.696Z,988.621582
2022-12-29T08:51:10.805Z,988.571167
2022-12-29T08:52:12.640Z,988.6868896
2022-12-29T08:53:15.264Z,988.6465454
2022-12-29T08:54:13.336Z,988.5778198
2022-12-29T08:55:15.224Z,988.583374
2022-12-29T08:56:12.734Z,988.6706543
2022-12-29T08:57:14.421Z,988.8068848
2022-12-29T08:58:12.588Z,988.6107788
2022-12-29T08:59:13.633Z,988.7206421
2022-12-29T09:00:11.675Z,988.7249756
2022-12-29T09:01:16.608Z,988.7397461
2022-12-29T09:02:13.423Z,988.6022949
2022-12-29T09:03:25.866Z,988.5759277
2022-12-29T09:03:46.091Z,988.5759277
2022-12-29T09:03:55.177Z,988.5759277
2022-12-29T09:04:21.353Z,988.642334
2022-12-29T09:06:19.123Z,988.6402588
2022-12-29T09:07:20.811Z,988.6402588
2022-12-29T09:08:22.312Z,988.6665649
2022-12-29T09:08:26.176Z,988.6665649
2022-12-29T09:09:19.336Z,988.753418
2022-12-29T09:10:15.433Z,988.7753906
2022-12-29T09:11:19.047Z,988.8188477
2022-12-29T09:12:14.154Z,988.8045044
2022-12-29T09:13:13.921Z,988.8595581
2022-12-29T09:14:10.081Z,988.7175903
2022-12-29T09:16:09.444Z,988.8616333
2022-12-29T09:17:10.761Z,988.7893677
2022-12-29T09:18:08.169Z,988.7182617
2022-12-29T09:19:10.364Z,988.6942749
2022-12-29T09:21:08.100Z,988.7124023
2022-12-29T09:22:04.734Z,988.8074951
2022-12-29T09:23:06.959Z,988.8831177
2022-12-29T09:24:06.202Z,988.8441162
2022-12-29T09:26:08.236Z,988.8421021
2022-12-29T09:27:02.512Z,988.9371948
2022-12-29T09:28:05.300Z,988.8134155
2022-12-29T09:29:31.691Z,988.7644653
2022-12-29T09:31:13.236Z,988.9241943
2022-12-29T09:32:13.951Z,988.9057617
2022-12-29T09:32:18.539Z,988.9057617
2022-12-29T09:32:19.863Z,988.9057617
2022-12-29T09:33:11.624Z,988.9358521
2022-12-29T09:34:07.684Z,988.9050903
2022-12-29T09:35:11.669Z,988.9816895
2022-12-29T09:36:07.011Z,988.9816895
2022-12-29T09:37:07.139Z,989.0001831
2022-12-29T09:38:02.460Z,988.8704834
2022-12-29T09:39:02.375Z,988.9841309
2022-12-29T09:40:01.823Z,989.010498
2022-12-29T09:41:03.342Z,988.8889771
2022-12-29T09:41:59.790Z,988.8807983
2022-12-29T09:43:05.030Z,988.899231
2022-12-29T09:43:57.671Z,989.0022583
2022-12-29T09:45:55.030Z,989.0001831
2022-12-29T09:46:54.809Z,989.0265503
2022-12-29T09:47:49.482Z,988.9738159
2022-12-29T09:48:49.336Z,988.9920044
2022-12-29T09:49:45.781Z,989.0162354
2022-12-29T09:50:48.450Z,988.8889771
2022-12-29T09:51:51.213Z,989.0309448
2022-12-29T09:52:43.693Z,989.020752
2022-12-29T09:53:44.637Z,988.9437256
2022-12-29T09:54:40.836Z,989.0697021
2022-12-29T09:56:42.884Z,989.0697021
2022-12-29T09:57:46.093Z,989.1364136
2022-12-29T09:58:40.472Z,989.0491333
2022-12-29T09:59:43.691Z,989.1466675
2022-12-29T10:00:40.141Z,989.0491333
2022-12-29T10:01:42.919Z,989.0125122
2022-12-29T10:02:45.043Z,989.0323486
2022-12-29T10:03:43.832Z,989.0323486
2022-12-29T10:04:39.416Z,988.9714966
2022-12-29T10:05:42.543Z,988.9816895
2022-12-29T10:06:50.237Z,988.9680176
2022-12-29T10:07:03.558Z,988.9680176
2022-12-29T10:07:19.363Z,988.9680176
2022-12-29T10:07:39.342Z,989.0001831
2022-12-29T10:08:41.546Z,989.0415649
2022-12-29T10:09:41.187Z,989.0314331
2022-12-29T10:10:36.544Z,988.9019775
2022-12-29T10:11:38.985Z,988.9547119
2022-12-29T10:12:31.642Z,988.9772949
2022-12-29T10:13:33.829Z,988.963623
2022-12-29T10:14:26.487Z,988.9187622
2022-12-29T10:15:27.793Z,988.9533081
2022-12-29T10:16:23.933Z,988.9920044
2022-12-29T10:17:24.910Z,988.9313965
2022-12-29T10:18:20.392Z,988.986145
2022-12-29T10:19:21.241Z,989.1281128
2022-12-29T10:20:51.948Z,989.0939331
2022-12-29T10:21:38.957Z,989.0505371
2022-12-29T10:22:35.965Z,989.024231
2022-12-29T10:23:37.485Z,988.9334106
2022-12-29T10:24:32.637Z,988.9417114
2022-12-29T10:26:27.527Z,988.9906006
2022-12-29T10:27:27.548Z,989.0457153
2022-12-29T10:28:22.848Z,989.0477295
2022-12-29T10:29:22.297Z,989.1691895
2022-12-29T10:30:17.799Z,989.1188965
2022-12-29T10:30:47.955Z,988.9974365
2022-12-29T10:31:44.074Z,988.992981
2022-12-29T10:32:39.778Z,988.8954468
2022-12-29T10:33:45.172Z,989.0296021
2022-12-29T10:34:43.319Z,988.9299927
2022-12-29T10:36:47.100Z,989.1818848
2022-12-29T10:37:49.099Z,989.076416
2022-12-29T10:38:45.357Z,989.1068726
2022-12-29T10:39:46.740Z,989.1554565
2022-12-29T10:41:44.424Z,989.0176392
2022-12-29T10:42:43.735Z,989.1229858
2022-12-29T10:43:41.248Z,989.1027832
2022-12-29T10:44:41.551Z,989.1674805
2022-12-29T10:45:43.387Z,989.1757202
2022-12-29T10:46:39.479Z,989.1715698
2022-12-29T10:47:34.777Z,989.1774292
2022-12-29T10:48:34.450Z,989.2218628
2022-12-29T10:49:32.602Z,989.1165771
2022-12-29T10:51:28.334Z,989.1531372
2022-12-29T10:52:33.242Z,989.2770386
2022-12-29T10:53:29.250Z,989.2971802
2022-12-29T10:54:32.096Z,989.2424316
2022-12-29T10:55:26.735Z,989.2546997
2022-12-29T10:56:29.317Z,989.2752075
2022-12-29T10:57:23.853Z,989.3518677
2022-12-29T10:58:21.141Z,989.2810669
2022-12-29T10:59:23.447Z,989.3399048
2022-12-29T11:00:56.671Z,989.3515625
2022-12-29T11:01:45.871Z,989.4745483
2022-12-29T11:02:43.372Z,989.3301392
2022-12-29T11:03:44.587Z,989.3441162
2022-12-29T11:04:46.344Z,989.2935181
2022-12-29T11:06:43.667Z,989.3954468
2022-12-29T11:07:46.923Z,989.2715454
2022-12-29T11:08:42.392Z,989.289978
2022-12-29T11:09:44.427Z,989.4502563
2022-12-29T11:10:39.045Z,989.421814
2022-12-29T11:11:44.028Z,989.2945557
2022-12-29T11:12:37.208Z,989.4262695
2022-12-29T11:13:39.458Z,989.4159546
2022-12-29T11:14:35.316Z,989.5008545
2022-12-29T11:16:35.375Z,989.4823608
2022-12-29T11:17:37.699Z,989.3588257
2022-12-29T11:18:32.062Z,989.2945557
2022-12-29T11:19:28.614Z,989.5131226
2022-12-29T11:20:28.737Z,989.4320068
2022-12-29T11:21:24.925Z,989.444397
2022-12-29T11:22:31.553Z,989.3735962
2022-12-29T11:23:26.161Z,989.4545898
2022-12-29T11:24:24.014Z,989.491272
2022-12-29T11:25:21.250Z,989.4751587
2022-12-29T11:26:27.681Z,989.4511108
2022-12-29T11:26:34.106Z,989.4511108
2022-12-29T11:27:21.045Z,989.480957
2022-12-29T11:28:16.526Z,989.6487427
2022-12-29T11:29:16.358Z,989.5878296
2022-12-29T11:30:11.839Z,989.5878296
2022-12-29T11:31:15.588Z,989.5512695
2022-12-29T11:32:10.011Z,989.6442871
2022-12-29T11:33:09.788Z,989.7394409
2022-12-29T11:34:06.347Z,989.6464233
2022-12-29T11:35:06.822Z,989.6647949
2022-12-29T11:36:03.333Z,989.5234375
2022-12-29T11:37:05.582Z,989.6370239
2022-12-29T11:37:58.535Z,989.5945435
2022-12-29T11:39:01.096Z,989.598999
2022-12-29T11:39:53.732Z,989.6068726
2022-12-29T11:41:17.656Z,989.6171265
2022-12-29T11:41:57.958Z,989.6331787
2022-12-29T11:42:58.413Z,989.6551514
2022-12-29T11:43:58.228Z,989.7218628
2022-12-29T11:44:54.633Z,989.7000122
2022-12-29T11:45:56.792Z,989.5462646
2022-12-29T11:46:52.131Z,989.5931396
2022-12-29T11:47:57.070Z,989.6212769
2022-12-29T11:48:52.759Z,989.5548706
2022-12-29T11:49:53.373Z,989.7148438
2022-12-29T11:50:49.765Z,989.6358643
2022-12-29T11:51:52.878Z,989.8143921
2022-12-29T11:52:45.745Z,989.7333374
2022-12-29T11:53:49.018Z,989.7494507
2022-12-29T11:54:54.599Z,989.7918701
2022-12-29T11:55:54.243Z,989.7757568
2022-12-29T11:56:50.738Z,989.8565674
2022-12-29T11:57:51.756Z,989.805603
2022-12-29T11:58:48.277Z,989.6564331
2022-12-29T12:00:53.241Z,989.8290405
2022-12-29T12:01:52.066Z,989.8348999
2022-12-29T12:02:55.534Z,989.8085938
2022-12-29T12:03:49.344Z,989.8451538
2022-12-29T12:04:56.355Z,989.774353
2022-12-29T12:05:49.034Z,989.9504395
2022-12-29T12:06:51.926Z,989.9849854
2022-12-29T12:07:48.603Z,989.7295532
2022-12-29T12:08:51.310Z,989.8510132
2022-12-29T12:09:45.618Z,989.960144
2022-12-29T12:10:44.889Z,989.852478